Time;durP1;ratioP1;P1;durP2;ratioP2;P2;SDS_P1;SDS_P2;PMS_P1;PMS_P2;Temp;Humidity;BMP_temperature;BMP_pressure;BME280_temperature;BME280_humidity;BME280_pressure;Samples;Min_cycle;Max_cycle;Signal;HPM_P1;HPM_P2
2023/01/08 00:01:42;;;;;;;55.70;25.17;;;;;;;-141.97;85.03;47588.28;5013415;28;20412;-84
2023/01/08 00:04:08;;;;;;;47.27;22.60;;;;;;;-141.97;84.85;47755.50;5014819;28;20432;-85
2023/01/08 00:06:34;;;;;;;49.67;22.07;;;;;;;-141.97;85.47;47653.63;5014868;28;20178;-84
2023/01/08 00:08:59;;;;;;;49.10;21.87;;;;;;;-141.97;85.56;47649.78;5015054;28;20163;-84
2023/01/08 00:11:24;;;;;;;47.37;23.00;;;;;;;-141.97;85.70;47676.69;5015901;28;20163;-85
2023/01/08 00:13:50;;;;;;;50.57;22.27;;;;;;;-141.97;85.92;47674.78;5013340;28;20163;-85
2023/01/08 00:16:17;;;;;;;49.33;22.13;;;;;;;-141.97;85.42;47611.34;5015111;28;20254;-85
2023/01/08 00:18:44;;;;;;;49.93;22.67;;;;;;;-141.97;85.95;47690.16;5013627;28;20175;-85
2023/01/08 00:21:10;;;;;;;51.13;22.60;;;;;;;-141.97;86.46;47661.31;5013394;28;20508;-85
2023/01/08 00:23:36;;;;;;;50.27;22.57;;;;;;;-141.97;86.58;47709.38;5009378;28;20444;-84
2023/01/08 00:26:04;;;;;;;48.20;21.73;;;;;;;-141.97;86.14;47636.31;4995007;28;20915;-84
2023/01/08 00:28:30;;;;;;;46.00;22.33;;;;;;;-141.97;86.23;47572.91;4995221;28;20817;-85
2023/01/08 00:30:55;;;;;;;43.97;22.33;;;;;;;-141.97;85.89;47603.66;4993396;28;20418;-85
2023/01/08 00:33:20;;;;;;;47.10;21.87;;;;;;;-141.97;85.28;47703.59;4995120;28;20160;-85
2023/01/08 00:35:46;;;;;;;50.57;20.00;;;;;;;-141.97;85.56;47686.31;4994840;28;20178;-85
2023/01/08 00:38:11;;;;;;;49.33;20.83;;;;;;;-141.97;85.74;47595.97;5000717;28;20171;-85
2023/01/08 00:40:38;;;;;;;46.03;21.50;;;;;;;-141.97;85.50;47561.38;5001837;28;20222;-85
2023/01/08 00:43:04;;;;;;;46.70;22.07;;;;;;;-141.97;85.22;47728.59;5002490;28;20167;-85
2023/01/08 00:45:29;;;;;;;51.17;22.30;;;;;;;-141.97;85.21;47676.69;5002168;28;21193;-84
2023/01/08 00:47:55;;;;;;;43.77;20.97;;;;;;;-141.97;84.99;47726.66;5006311;28;20255;-85
2023/01/08 00:50:20;;;;;;;48.23;23.47;;;;;;;-141.97;85.80;47638.25;5001250;28;20175;-85
2023/01/08 00:52:45;;;;;;;41.70;20.93;;;;;;;-141.97;85.68;47659.38;5002745;28;20278;-85
2023/01/08 00:55:11;;;;;;;46.13;20.77;;;;;;;-141.97;85.27;47665.16;5003418;28;20195;-85
2023/01/08 00:57:38;;;;;;;45.57;21.77;;;;;;;-141.97;85.99;47732.44;5001459;28;20166;-84
2023/01/08 01:00:06;;;;;;;44.20;20.87;;;;;;;-141.97;86.03;47665.16;5003627;28;20191;-84
2023/01/08 01:02:34;;;;;;;42.67;20.07;;;;;;;-141.97;85.48;47724.75;5011681;28;20410;-82
2023/01/08 01:04:59;;;;;;;43.87;20.27;;;;;;;-141.97;85.25;47692.06;5008100;28;20944;-83
2023/01/08 01:07:25;;;;;;;37.53;18.30;;;;;;;-141.97;84.71;47695.91;5004123;28;20402;-85
2023/01/08 01:09:50;;;;;;;40.07;18.03;;;;;;;-141.97;85.15;47726.66;5001656;28;20220;-85
2023/01/08 01:12:15;;;;;;;38.23;16.87;;;;;;;-141.97;84.92;47640.16;5002216;28;20163;-85
2023/01/08 01:14:41;;;;;;;36.37;17.33;;;;;;;-141.97;85.30;47730.50;5002423;28;20588;-86
2023/01/08 01:17:06;;;;;;;36.13;17.27;;;;;;;-141.97;85.33;47676.69;5002628;28;20171;-84
2023/01/08 01:19:32;;;;;;;38.47;17.67;;;;;;;-141.97;85.19;47644.00;5002407;28;20186;-85
2023/01/08 01:21:58;;;;;;;39.73;18.40;;;;;;;-141.97;85.35;47649.78;5003502;28;20639;-86
2023/01/08 01:24:24;;;;;;;38.67;17.13;;;;;;;-141.97;85.68;47684.38;5001107;28;20271;-84
2023/01/08 01:26:56;;;;;;;37.27;17.03;;;;;;;-141.97;85.91;47690.16;5021168;28;20402;-84
2023/01/08 01:29:22;;;;;;;35.90;17.33;;;;;;;-141.97;86.23;47665.16;5005013;28;20659;-85
2023/01/08 01:31:48;;;;;;;39.07;17.80;;;;;;;-141.97;86.35;47669.00;5002634;28;20798;-85
2023/01/08 01:34:13;;;;;;;43.77;22.93;;;;;;;-141.97;86.14;47661.31;5002009;28;20421;-85
2023/01/08 01:36:38;;;;;;;41.07;19.77;;;;;;;-141.97;86.47;47705.53;5002642;28;20162;-85
2023/01/08 01:39:04;;;;;;;44.50;21.33;;;;;;;-141.97;86.40;47680.53;5016466;28;20187;-85
2023/01/08 01:41:39;;;;;;;66.23;35.37;;;;;;;-141.97;86.95;47718.97;5001061;28;20174;-85
2023/01/08 01:44:43;;;;;;;71.90;38.70;;;;;;;-141.97;86.57;47732.44;5004021;28;20194;-85
2023/01/08 01:47:26;;;;;;;81.97;41.43;;;;;;;-141.97;86.02;47674.78;5006578;28;20437;-85
2023/01/08 01:50:02;;;;;;;70.10;34.43;;;;;;;-141.97;85.81;47701.69;5010290;28;20442;-85
2023/01/08 01:52:31;;;;;;;55.23;27.60;;;;;;;-141.97;86.44;47672.84;5011701;28;20410;-85
2023/01/08 01:55:00;;;;;;;54.87;26.47;;;;;;;-141.97;87.04;47615.19;5012668;28;20422;-84
2023/01/08 01:57:27;;;;;;;47.67;22.63;;;;;;;-141.97;86.86;47657.47;5012658;28;20886;-85
2023/01/08 01:59:54;;;;;;;51.00;25.20;;;;;;;-141.97;86.99;47742.03;5013039;28;20445;-85
2023/01/08 02:02:19;;;;;;;47.47;23.60;;;;;;;-141.97;86.98;47742.03;5030934;28;20413;-84
2023/01/08 02:04:45;;;;;;;46.83;22.33;;;;;;;-141.97;86.54;47674.78;5035869;28;20386;-85
2023/01/08 02:07:18;;;;;;;42.80;22.70;;;;;;;-141.97;86.46;47680.53;5035523;28;20169;-85
2023/01/08 02:09:46;;;;;;;47.80;22.97;;;;;;;-141.97;85.79;47726.66;5016669;28;20163;-85
2023/01/08 02:12:41;;;;;;;48.00;21.77;;;;;;;-141.97;85.33;47640.16;5013820;28;20467;-85
2023/01/08 02:15:28;;;;;;;61.33;26.60;;;;;;;-141.97;84.95;47663.22;4955540;28;20420;-85
2023/01/08 02:18:06;;;;;;;50.30;23.90;;;;;;;-141.97;84.32;47649.78;4971487;28;20907;-85
2023/01/08 02:21:02;;;;;;;42.80;21.87;;;;;;;-141.97;84.43;47690.16;4954979;28;20465;-85
2023/01/08 02:23:39;;;;;;;38.40;19.87;;;;;;;-141.97;84.52;47745.88;4879407;29;20501;-85
2023/01/08 02:26:30;;;;;;;40.67;20.63;;;;;;;-141.97;84.32;47711.28;4895192;29;20441;-85
2023/01/08 02:29:02;;;;;;;42.90;21.33;;;;;;;-141.97;83.97;47711.28;4879422;29;20434;-84
2023/01/08 02:31:30;;;;;;;45.03;20.17;;;;;;;-141.97;83.64;47665.16;4894349;29;20419;-85
2023/01/08 02:33:56;;;;;;;41.17;20.17;;;;;;;-141.97;83.45;47757.41;4895022;29;20427;-85
2023/01/08 02:36:24;;;;;;;39.43;19.93;;;;;;;-141.97;83.25;47665.16;4889363;29;20453;-85
2023/01/08 02:38:58;;;;;;;42.57;20.17;;;;;;;-141.97;83.67;47742.03;4907484;29;20226;-85
2023/01/08 02:41:43;;;;;;;41.17;19.83;;;;;;;-141.97;84.03;47695.91;4898432;29;21026;-85
2023/01/08 02:44:16;;;;;;;45.90;21.07;;;;;;;-141.97;84.97;47699.75;4894175;29;20522;-86
2023/01/08 02:46:42;;;;;;;42.20;21.13;;;;;;;-141.97;84.82;47684.38;4879491;29;20411;-84
2023/01/08 02:49:12;;;;;;;44.70;21.90;;;;;;;-141.97;84.44;47642.09;4879082;29;20427;-85
2023/01/08 02:51:46;;;;;;;45.20;22.33;;;;;;;-141.97;84.16;47626.72;4911499;29;20532;-84
2023/01/08 02:54:17;;;;;;;41.23;20.20;;;;;;;-141.97;84.25;47707.44;4935501;29;20476;-86
2023/01/08 02:56:48;;;;;;;41.83;20.40;;;;;;;-141.97;84.65;47630.56;4951914;29;20400;-84
2023/01/08 02:59:14;;;;;;;48.40;21.33;;;;;;;-141.97;84.45;47692.06;4956592;28;20452;-85
2023/01/08 03:01:41;;;;;;;42.70;20.03;;;;;;;-141.97;84.16;47772.78;4991329;28;20437;-85
2023/01/08 03:04:16;;;;;;;42.63;20.40;;;;;;;-141.97;83.89;47734.34;4991747;28;20407;-85
2023/01/08 03:06:43;;;;;;;41.40;19.83;;;;;;;-141.97;83.85;47615.19;4991706;28;20410;-85
2023/01/08 03:09:09;;;;;;;40.87;18.93;;;;;;;-141.97;83.40;47630.56;4995534;28;20533;-85
2023/01/08 03:12:14;;;;;;;42.87;19.47;;;;;;;-141.97;83.39;47611.34;5001668;28;20502;-86
2023/01/08 03:14:45;;;;;;;38.40;18.90;;;;;;;-141.97;83.83;47749.72;4946490;29;20469;-85
2023/01/08 03:17:19;;;;;;;57.43;25.33;;;;;;;-141.97;83.53;47711.28;4945800;29;20184;-85
2023/01/08 03:19:57;;;;;;;93.33;34.53;;;;;;;-141.97;83.22;47695.91;4937110;29;20563;-86
2023/01/08 03:22:23;;;;;;;48.87;21.60;;;;;;;-141.97;83.75;47669.00;4939177;29;20893;-87
2023/01/08 03:24:55;;;;;;;43.63;20.07;;;;;;;-141.97;83.68;47599.81;4929688;29;20803;-85
2023/01/08 03:27:26;;;;;;;34.22;16.77;;;;;;;-141.97;84.11;47715.13;4930132;29;20862;-85
2023/01/08 03:29:59;;;;;;;37.03;17.33;;;;;;;-141.97;84.46;47722.81;4945902;29;20181;-86
2023/01/08 03:32:28;;;;;;;36.90;16.02;;;;;;;-141.97;84.54;47676.69;4947089;29;20421;-86
2023/01/08 03:34:56;;;;;;;32.53;16.33;;;;;;;-141.97;85.10;47655.53;4946313;29;20632;-85
2023/01/08 03:37:30;;;;;;;30.67;14.90;;;;;;;-141.97;84.92;47682.47;4947941;29;20408;-85
2023/01/08 03:40:08;;;;;;;54.10;22.50;;;;;;;-141.97;84.40;47684.38;4953742;29;20188;-85
2023/01/08 03:42:34;;;;;;;44.37;21.10;;;;;;;-141.97;84.15;47715.13;4953849;29;20412;-86
2023/01/08 03:45:00;;;;;;;57.70;27.93;;;;;;;-141.97;83.94;47707.44;4951605;29;20572;-85
2023/01/08 03:47:35;;;;;;;49.43;24.50;;;;;;;-141.97;83.82;47672.84;4930917;29;20213;-85
2023/01/08 03:50:03;;;;;;;36.07;18.80;;;;;;;-141.97;83.86;47695.91;4949106;28;20508;-84
2023/01/08 03:52:32;;;;;;;39.50;19.57;;;;;;;-141.97;84.25;47595.97;5005876;28;20441;-85
2023/01/08 03:54:57;;;;;;;44.07;21.60;;;;;;;-141.97;84.54;47634.41;5003186;28;20411;-84
2023/01/08 03:57:23;;;;;;;39.53;19.93;;;;;;;-141.97;84.39;47640.16;4994417;28;20762;-85
2023/01/08 03:59:48;;;;;;;36.13;17.90;;;;;;;-141.97;84.45;47657.47;4996824;28;20209;-85
2023/01/08 04:02:14;;;;;;;32.90;17.07;;;;;;;-141.97;84.57;47753.56;5016266;28;20178;-85
2023/01/08 04:04:40;;;;;;;36.43;19.03;;;;;;;-141.97;84.17;47692.06;5016640;28;20240;-85
2023/01/08 04:07:07;;;;;;;78.10;36.93;;;;;;;-141.97;84.08;47722.81;5017490;28;20195;-85
2023/01/08 04:09:32;;;;;;;305.13;119.73;;;;;;;-141.97;83.62;47644.00;5016498;28;20409;-86
2023/01/08 04:11:57;;;;;;;392.53;152.53;;;;;;;-141.97;83.54;47692.06;5017351;28;20471;-84
2023/01/08 04:14:23;;;;;;;561.80;277.00;;;;;;;-141.97;83.05;47718.97;5015720;28;20179;-84
2023/01/08 04:16:48;;;;;;;318.27;128.43;;;;;;;-141.97;82.79;47619.03;5013763;28;20177;-84
2023/01/08 04:19:14;;;;;;;212.70;89.53;;;;;;;-141.97;82.33;47695.91;5016908;28;20186;-84
2023/01/08 04:21:39;;;;;;;169.57;72.33;;;;;;;-141.97;82.53;47640.16;5015982;28;20487;-85
2023/01/08 04:24:05;;;;;;;103.00;43.03;;;;;;;-141.97;81.99;47713.22;5015133;28;20167;-84
2023/01/08 04:26:31;;;;;;;90.60;39.97;;;;;;;-141.97;82.12;47707.44;5015175;28;20159;-84
2023/01/08 04:28:56;;;;;;;109.97;47.07;;;;;;;-141.97;82.10;47622.88;5015085;28;20242;-85
2023/01/08 04:31:22;;;;;;;72.83;34.43;;;;;;;-141.97;81.80;47674.78;5015098;28;20642;-84
2023/01/08 04:33:48;;;;;;;89.13;40.40;;;;;;;-141.97;81.29;47674.78;5013394;28;20250;-84
2023/01/08 04:36:13;;;;;;;171.27;73.17;;;;;;;-141.97;81.11;47653.63;5013086;28;20558;-85
2023/01/08 04:38:39;;;;;;;141.77;59.00;;;;;;;-141.97;81.13;47695.91;5013701;28;20262;-84
2023/01/08 04:41:05;;;;;;;118.07;50.83;;;;;;;-141.97;81.22;47751.66;5014959;28;20637;-84
2023/01/08 04:43:31;;;;;;;133.17;56.50;;;;;;;-141.97;81.20;47669.00;5015048;28;20186;-85
2023/01/08 04:46:02;;;;;;;269.97;108.57;;;;;;;-141.97;81.23;47661.31;5013421;28;20191;-84
2023/01/08 04:48:28;;;;;;;404.23;168.63;;;;;;;-141.97;81.45;47688.22;5014857;28;20473;-84
2023/01/08 04:50:56;;;;;;;518.57;255.30;;;;;;;-141.97;81.54;47672.84;5014589;28;20410;-84
2023/01/08 04:53:21;;;;;;;690.33;350.37;;;;;;;-141.97;81.44;47626.72;5014051;28;20996;-84
2023/01/08 04:55:47;;;;;;;857.30;446.40;;;;;;;-141.97;81.76;47734.34;5014367;28;20409;-84
2023/01/08 04:58:12;;;;;;;786.57;387.40;;;;;;;-141.97;82.24;47653.63;5014282;28;20240;-84
2023/01/08 05:00:39;;;;;;;712.53;340.13;;;;;;;-141.97;81.98;47630.56;5014127;28;20222;-84
2023/01/08 05:03:04;;;;;;;635.50;289.90;;;;;;;-141.97;82.06;47590.19;5014327;28;20163;-84
2023/01/08 05:05:29;;;;;;;401.40;153.30;;;;;;;-141.97;81.26;47676.69;5027807;28;20202;-84
2023/01/08 05:07:55;;;;;;;428.03;186.67;;;;;;;-141.97;81.43;47711.28;5038111;28;20226;-84
2023/01/08 05:10:20;;;;;;;493.67;243.83;;;;;;;-141.97;81.69;47682.47;5027373;28;20202;-84
2023/01/08 05:12:46;;;;;;;714.23;387.37;;;;;;;-141.97;82.21;47728.59;5031964;28;20158;-85
2023/01/08 05:15:11;;;;;;;588.60;303.80;;;;;;;-141.97;82.00;47728.59;5014089;28;20225;-85
2023/01/08 05:17:36;;;;;;;539.03;257.30;;;;;;;-141.97;82.27;47680.53;5013971;28;20169;-85
2023/01/08 05:20:02;;;;;;;654.47;324.57;;;;;;;-141.97;82.98;47697.84;5013819;28;20182;-84
2023/01/08 05:22:28;;;;;;;341.20;129.47;;;;;;;-141.97;83.58;47665.16;5013015;28;20162;-84
2023/01/08 05:24:53;;;;;;;94.80;36.93;;;;;;;-141.97;84.39;47615.19;5012220;28;20194;-84
2023/01/08 05:27:19;;;;;;;53.07;24.07;;;;;;;-141.97;85.25;47653.63;5012406;28;20777;-84
2023/01/08 05:29:44;;;;;;;48.63;22.40;;;;;;;-141.97;85.87;47740.13;5013324;28;20159;-85
2023/01/08 05:32:17;;;;;;;67.37;30.47;;;;;;;-141.97;85.91;47695.91;5013828;28;20182;-84
2023/01/08 05:34:43;;;;;;;41.55;20.05;;;;;;;-141.97;85.34;47682.47;5013953;28;20165;-85
2023/01/08 05:37:08;;;;;;;57.95;25.90;;;;;;;-141.97;85.79;47670.91;5015707;28;20230;-84
2023/01/08 05:39:34;;;;;;;36.73;16.57;;;;;;;-141.97;85.80;47699.75;5015370;28;20425;-84
2023/01/08 05:42:01;;;;;;;36.85;16.60;;;;;;;-141.97;85.48;47630.56;5013961;28;20563;-85
2023/01/08 05:44:26;;;;;;;40.63;17.90;;;;;;;-141.97;86.00;47749.72;5012379;28;20647;-84
2023/01/08 05:46:52;;;;;;;35.63;15.30;;;;;;;-141.97;85.91;47642.09;5013365;28;20166;-85
2023/01/08 05:49:17;;;;;;;32.43;16.30;;;;;;;-141.97;85.91;47747.81;5013230;28;20163;-85
2023/01/08 05:51:43;;;;;;;39.93;20.47;;;;;;;-141.97;86.58;47684.38;5013054;28;20174;-85
2023/01/08 05:54:08;;;;;;;34.33;18.80;;;;;;;-141.97;86.46;47669.00;5011462;28;20282;-85
2023/01/08 05:56:34;;;;;;;34.10;17.10;;;;;;;-141.97;86.82;47726.66;5013711;28;20166;-85
2023/01/08 05:58:59;;;;;;;38.10;20.27;;;;;;;-141.97;87.15;47747.81;5013107;28;20179;-85
2023/01/08 06:01:24;;;;;;;39.00;19.87;;;;;;;-141.97;87.27;47734.34;5012708;28;20274;-85
2023/01/08 06:03:50;;;;;;;34.60;18.67;;;;;;;-141.97;86.81;47713.22;5012402;28;20175;-84
2023/01/08 06:06:15;;;;;;;28.43;14.80;;;;;;;-141.97;86.63;47715.13;5013036;28;20563;-85
2023/01/08 06:08:41;;;;;;;28.43;14.13;;;;;;;-141.97;87.00;47730.50;5012458;28;20239;-84
2023/01/08 06:11:09;;;;;;;28.47;13.20;;;;;;;-141.97;87.37;47597.88;5011529;28;20282;-86
2023/01/08 06:13:36;;;;;;;26.10;12.82;;;;;;;-141.97;87.46;47757.41;5012679;28;20181;-84
2023/01/08 06:16:02;;;;;;;28.08;12.18;;;;;;;-141.97;87.32;47692.06;5011075;28;20186;-84
2023/01/08 06:18:29;;;;;;;26.50;12.57;;;;;;;-141.97;87.47;47661.31;4999727;28;20175;-85
2023/01/08 06:20:54;;;;;;;29.48;13.68;;;;;;;-141.97;87.67;47665.16;4994532;28;20183;-84
2023/01/08 06:23:20;;;;;;;24.77;13.27;;;;;;;-141.97;87.75;47755.50;4991508;28;20182;-84
2023/01/08 06:25:51;;;;;;;40.43;19.77;;;;;;;-141.97;87.75;47649.78;4991353;28;20337;-85
2023/01/08 06:28:16;;;;;;;69.50;32.13;;;;;;;-141.97;87.62;47680.53;4991373;28;20174;-85
2023/01/08 06:30:42;;;;;;;55.00;26.67;;;;;;;-141.97;87.43;47707.44;4991612;28;20156;-86
2023/01/08 06:33:07;;;;;;;67.03;29.27;;;;;;;-141.97;86.88;47690.16;4991189;28;20199;-85
2023/01/08 06:35:32;;;;;;;57.87;27.70;;;;;;;-141.97;86.16;47653.63;4991631;28;20168;-85
2023/01/08 06:37:58;;;;;;;206.83;71.90;;;;;;;-141.97;85.74;47676.69;4991192;28;20623;-85
2023/01/08 06:40:23;;;;;;;161.27;60.03;;;;;;;-141.97;84.43;47692.06;4991115;28;20281;-85
2023/01/08 06:42:49;;;;;;;128.30;54.13;;;;;;;-141.97;82.67;47680.53;4993833;28;20156;-86
2023/01/08 06:45:15;;;;;;;98.37;43.23;;;;;;;-141.97;81.14;47619.03;5001117;28;20269;-85
2023/01/08 06:47:40;;;;;;;70.93;32.80;;;;;;;-141.97;80.35;47669.00;5001541;28;20174;-86
2023/01/08 06:50:06;;;;;;;65.33;29.93;;;;;;;-141.97;79.32;47682.47;5002237;28;20170;-84
2023/01/08 06:52:32;;;;;;;56.90;28.27;;;;;;;-141.97;78.67;47686.31;5001598;28;20166;-86
2023/01/08 06:54:57;;;;;;;67.07;28.00;;;;;;;-141.97;78.70;47795.88;5001332;28;20297;-84
2023/01/08 06:57:23;;;;;;;109.70;40.90;;;;;;;-141.97;78.97;47757.41;4999435;28;20187;-85
2023/01/08 06:59:48;;;;;;;109.47;45.40;;;;;;;-141.97;78.33;47730.50;5000910;28;20607;-86
2023/01/08 07:02:15;;;;;;;99.07;41.47;;;;;;;-141.97;78.89;47697.84;5001799;28;20623;-86
2023/01/08 07:04:41;;;;;;;76.33;35.13;;;;;;;-141.97;78.88;47709.38;5001695;28;20195;-85
2023/01/08 07:07:07;;;;;;;62.57;31.27;;;;;;;-141.97;78.10;47688.22;4999474;28;20461;-87
2023/01/08 07:09:33;;;;;;;68.93;32.57;;;;;;;-141.97;76.66;47622.88;5002633;28;20192;-84
2023/01/08 07:11:59;;;;;;;95.80;36.70;;;;;;;-141.97;70.50;47747.81;5001301;28;20175;-86
2023/01/08 07:14:24;;;;;;;112.67;53.13;;;;;;;-141.97;60.61;47742.03;4999947;28;20409;-85
2023/01/08 07:16:49;;;;;;;111.57;52.53;;;;;;;-141.97;56.67;47657.47;5001086;28;20563;-86
2023/01/08 07:19:15;;;;;;;74.67;39.47;;;;;;;-141.97;53.52;47678.63;5001311;28;20190;-85
2023/01/08 07:21:41;;;;;;;57.13;28.53;;;;;;;-141.97;49.54;47630.56;5000090;28;20179;-87
2023/01/08 07:24:06;;;;;;;50.23;30.40;;;;;;;-141.97;48.11;47799.72;5006198;28;20182;-84
2023/01/08 07:26:32;;;;;;;46.10;28.37;;;;;;;-141.97;48.22;47601.72;5000671;28;20187;-86
2023/01/08 07:28:57;;;;;;;45.37;27.07;;;;;;;-141.97;48.88;47786.25;4992553;28;20230;-85
2023/01/08 07:31:23;;;;;;;36.50;20.10;;;;;;;-141.97;52.54;47665.16;4996439;28;20222;-85
2023/01/08 07:33:49;;;;;;;27.17;14.90;;;;;;;-141.97;57.11;47626.72;4997365;28;20168;-85
2023/01/08 07:36:15;;;;;;;34.20;17.27;;;;;;;-141.97;62.39;47690.16;4995041;28;20163;-85
2023/01/08 07:38:41;;;;;;;25.73;13.83;;;;;;;-141.97;66.85;47626.72;4993861;28;20230;-85
2023/01/08 07:41:07;;;;;;;29.83;15.13;;;;;;;-141.97;67.76;47603.66;4991901;28;20703;-84
2023/01/08 07:43:34;;;;;;;37.57;21.40;;;;;;;-141.97;69.72;47690.16;4996527;28;20556;-84
2023/01/08 07:46:01;;;;;;;30.37;17.87;;;;;;;-141.97;70.38;47697.84;5000842;28;20162;-85
2023/01/08 07:48:27;;;;;;;31.30;17.53;;;;;;;-141.97;69.77;47703.59;4999027;28;20985;-85
2023/01/08 07:50:53;;;;;;;60.33;35.13;;;;;;;-141.97;68.48;47669.00;4997804;28;20414;-85
2023/01/08 07:53:18;;;;;;;37.07;20.43;;;;;;;-141.97;68.36;47657.47;4999187;28;20329;-85
2023/01/08 07:55:44;;;;;;;44.60;25.43;;;;;;;-141.97;66.84;47717.06;5003903;28;20413;-85
2023/01/08 07:58:12;;;;;;;68.80;38.63;;;;;;;-141.97;66.05;47680.53;4996970;28;20270;-85
2023/01/08 08:00:37;;;;;;;42.93;25.27;;;;;;;-141.97;65.16;47728.59;5008281;28;20257;-85
2023/01/08 08:03:05;;;;;;;33.33;18.83;;;;;;;-141.97;65.29;47661.31;5014279;28;20684;-85
2023/01/08 08:05:31;;;;;;;34.93;20.60;;;;;;;-141.97;66.00;47676.69;5032855;28;20177;-86
2023/01/08 08:07:57;;;;;;;42.53;24.63;;;;;;;-141.97;64.30;47682.47;5021222;28;20410;-86
2023/01/08 08:10:22;;;;;;;51.27;28.17;;;;;;;-141.97;63.68;47730.50;5010903;28;20523;-86
2023/01/08 08:12:47;;;;;;;81.77;50.47;;;;;;;-141.97;62.87;47692.06;5002998;28;20225;-85
2023/01/08 08:15:13;;;;;;;55.73;31.67;;;;;;;-141.97;62.00;47659.38;5005390;28;20218;-86
2023/01/08 08:17:38;;;;;;;63.27;37.73;;;;;;;-141.97;62.10;47718.97;5014555;28;20163;-85
2023/01/08 08:20:04;;;;;;;48.37;26.50;;;;;;;-141.97;61.83;47738.19;5014352;28;20250;-86
2023/01/08 08:22:30;;;;;;;48.67;24.73;;;;;;;-141.97;61.74;47670.91;5006248;28;20183;-84
2023/01/08 08:24:55;;;;;;;108.53;38.87;;;;;;;-141.97;61.12;47682.47;5011278;28;20166;-85
2023/01/08 08:27:22;;;;;;;32.40;16.87;;;;;;;-141.97;60.34;47657.47;4999182;28;20840;-85
2023/01/08 08:29:48;;;;;;;43.67;21.67;;;;;;;-141.97;61.36;47690.16;5003979;28;20170;-84
2023/01/08 08:32:13;;;;;;;42.43;23.07;;;;;;;-141.97;61.32;47749.72;5008271;28;20417;-85
2023/01/08 08:34:38;;;;;;;32.20;18.30;;;;;;;-141.97;61.04;47720.91;5006804;28;20179;-86
2023/01/08 08:37:04;;;;;;;34.57;19.33;;;;;;;-141.97;60.16;47665.16;5010702;28;20213;-85
2023/01/08 08:39:29;;;;;;;84.10;39.50;;;;;;;-141.97;59.21;47649.78;5016301;28;20260;-85
2023/01/08 08:41:54;;;;;;;61.40;29.10;;;;;;;-141.97;58.60;47713.22;5015621;28;20568;-85
2023/01/08 08:44:20;;;;;;;44.17;25.70;;;;;;;-141.97;57.58;47624.78;5017159;28;20178;-85
2023/01/08 08:46:45;;;;;;;36.00;20.80;;;;;;;-141.97;57.70;47686.31;5014902;28;20910;-86
2023/01/08 08:49:10;;;;;;;39.63;22.60;;;;;;;-141.97;57.32;47718.97;5012175;28;20567;-86
2023/01/08 08:51:36;;;;;;;35.03;21.20;;;;;;;-141.97;56.29;47738.19;5012745;28;20162;-86
2023/01/08 08:54:01;;;;;;;27.67;15.53;;;;;;;-141.97;56.26;47678.63;5013329;28;20210;-86
2023/01/08 08:56:28;;;;;;;25.47;15.13;;;;;;;-141.97;57.64;47770.88;5014270;28;20202;-85
2023/01/08 08:58:54;;;;;;;34.93;18.80;;;;;;;-141.97;58.91;47688.22;5015809;28;20174;-85
2023/01/08 09:01:19;;;;;;;29.47;15.27;;;;;;;-141.97;58.94;47782.41;5014337;28;20432;-86
2023/01/08 09:03:45;;;;;;;21.47;11.23;;;;;;;-141.97;59.33;47611.34;5017654;28;20171;-86
2023/01/08 09:06:14;;;;;;;22.93;12.47;;;;;;;-141.97;59.03;47682.47;5014470;28;20659;-85
2023/01/08 09:08:39;;;;;;;27.27;13.87;;;;;;;-141.97;57.69;47574.81;5013468;28;20178;-86
2023/01/08 09:11:05;;;;;;;22.10;12.07;;;;;;;-141.97;56.91;47651.69;5012946;28;20590;-85
2023/01/08 09:13:30;;;;;;;28.83;15.53;;;;;;;-141.97;56.81;47803.56;5013049;28;20189;-85
2023/01/08 09:15:59;;;;;;;32.13;15.60;;;;;;;-141.97;56.34;47749.72;5011446;28;20173;-85
2023/01/08 09:18:24;;;;;;;46.13;25.40;;;;;;;-141.97;56.54;47594.03;5013130;28;20697;-85
2023/01/08 09:20:50;;;;;;;24.60;14.27;;;;;;;-141.97;55.90;47676.69;5014552;28;20281;-86
2023/01/08 09:23:15;;;;;;;30.80;15.53;;;;;;;-141.97;54.60;47788.19;5012363;28;20261;-85
2023/01/08 09:25:41;;;;;;;27.40;14.47;;;;;;;-141.97;53.76;47757.41;5010702;28;20269;-87
2023/01/08 09:28:10;;;;;;;48.77;21.27;;;;;;;-141.97;53.93;47711.28;5011999;28;20174;-85
2023/01/08 09:30:37;;;;;;;83.63;37.00;;;;;;;-141.97;53.40;47740.13;5005111;28;20198;-85
2023/01/08 09:33:03;;;;;;;16.60;10.07;;;;;;;-141.97;54.21;47686.31;5000294;28;20170;-84
2023/01/08 09:35:29;;;;;;;39.10;21.33;;;;;;;-141.97;53.44;47565.22;5002122;28;20189;-85
2023/01/08 09:37:55;;;;;;;23.27;12.43;;;;;;;-141.97;53.32;47663.22;5001071;28;20175;-86
2023/01/08 09:40:32;;;;;;;24.17;13.33;;;;;;;-141.97;52.48;47686.31;5003854;28;20235;-86
2023/01/08 09:43:00;;;;;;;21.13;12.43;;;;;;;-141.97;52.40;47751.66;5003349;28;20175;-85
2023/01/08 09:45:30;;;;;;;125.43;75.63;;;;;;;-141.97;52.00;47615.19;5000342;28;20545;-84
2023/01/08 09:48:00;;;;;;;24.33;13.87;;;;;;;-141.97;51.33;47684.38;5001653;28;20676;-85
2023/01/08 09:50:28;;;;;;;67.17;30.27;;;;;;;-141.97;51.26;47665.16;5001209;28;20173;-85
2023/01/08 09:52:53;;;;;;;37.27;20.93;;;;;;;-141.97;51.49;47651.69;5000668;28;20187;-86
2023/01/08 09:55:19;;;;;;;27.97;16.67;;;;;;;-141.97;51.31;47661.31;5001471;28;20171;-85
2023/01/08 09:57:46;;;;;;;16.07;10.00;;;;;;;-141.97;52.46;47684.38;5001093;28;20179;-85
2023/01/08 10:00:27;;;;;;;13.90;8.60;;;;;;;-141.97;51.76;47630.56;4998444;28;20238;-84
2023/01/08 10:02:54;;;;;;;16.93;9.83;;;;;;;-141.97;50.68;47607.50;4999791;28;20166;-85
2023/01/08 10:05:19;;;;;;;14.37;8.10;;;;;;;-141.97;50.54;47692.06;5001743;28;20174;-85
2023/01/08 10:07:45;;;;;;;14.63;8.70;;;;;;;-141.97;52.77;47642.09;5000090;28;20160;-86
2023/01/08 10:10:28;;;;;;;16.10;9.27;;;;;;;-141.97;51.88;47672.84;5001000;28;20225;-86
2023/01/08 10:12:54;;;;;;;21.60;13.80;;;;;;;-141.97;50.53;47672.84;5002237;28;20651;-86
2023/01/08 10:15:21;;;;;;;25.10;14.20;;;;;;;-141.97;49.31;47680.53;5001963;28;20168;-85
2023/01/08 10:18:01;;;;;;;20.07;11.50;;;;;;;-141.97;49.39;47649.78;4996893;28;20245;-84
2023/01/08 10:20:28;;;;;;;22.63;12.93;;;;;;;-141.97;49.16;47684.38;4992679;28;20251;-83
2023/01/08 10:22:54;;;;;;;52.87;25.57;;;;;;;-141.97;49.88;47703.59;5000456;28;20651;-83
2023/01/08 10:25:22;;;;;;;26.43;13.67;;;;;;;-141.97;50.06;47642.09;5003408;28;20167;-83
2023/01/08 10:27:58;;;;;;;24.93;13.87;;;;;;;-141.97;49.74;47703.59;4999479;28;20198;-83
2023/01/08 10:30:29;;;;;;;18.33;11.20;;;;;;;-141.97;48.58;47697.84;4997088;28;20177;-84
2023/01/08 10:33:01;;;;;;;23.90;12.90;;;;;;;-141.97;48.04;47630.56;5000311;28;20167;-84
2023/01/08 10:35:36;;;;;;;18.67;9.60;;;;;;;-141.97;49.26;47674.78;5000129;28;20171;-82
2023/01/08 10:38:01;;;;;;;16.00;9.87;;;;;;;-141.97;49.68;47653.63;5010161;28;20721;-84
2023/01/08 10:40:44;;;;;;;14.27;8.63;;;;;;;-141.97;50.03;47651.69;5004654;28;20267;-83
2023/01/08 10:43:27;;;;;;;16.60;9.57;;;;;;;-141.97;50.33;47674.78;4975729;28;20188;-84
2023/01/08 10:46:06;;;;;;;15.43;9.50;;;;;;;-141.97;50.09;47636.31;4970851;28;20178;-84
2023/01/08 10:48:35;;;;;;;19.70;11.17;;;;;;;-141.97;49.34;47615.19;4970866;28;20263;-83
2023/01/08 10:51:19;;;;;;;26.23;13.97;;;;;;;-141.97;48.82;47749.72;4971022;28;20596;-84
2023/01/08 10:53:44;;;;;;;22.63;12.20;;;;;;;-141.97;47.95;47701.69;4970736;28;20228;-83
2023/01/08 10:56:22;;;;;;;28.07;12.23;;;;;;;-141.97;48.03;47670.91;4973847;28;20176;-84
2023/01/08 10:58:48;;;;;;;14.87;8.17;;;;;;;-141.97;47.37;47630.56;4974796;28;20504;-83
2023/01/08 11:01:28;;;;;;;22.70;13.07;;;;;;;-141.97;46.87;47695.91;4971648;28;20361;-83
2023/01/08 11:03:57;;;;;;;37.73;18.40;;;;;;;-141.97;46.72;47680.53;4970938;28;20286;-83